createdAt,value
2022-10-09T00:02:16.801Z,101036.09
2022-10-09T00:04:43.436Z,101038.75
2022-10-09T00:07:10.160Z,101028.22
2022-10-09T00:09:36.701Z,101029.94
2022-10-09T00:12:03.394Z,101034.38
2022-10-09T00:14:30.011Z,101028.22
2022-10-09T00:16:56.607Z,101027.34
2022-10-09T00:19:23.234Z,101032.66
2022-10-09T00:21:49.865Z,101028.25
2022-10-09T00:24:16.489Z,101026.44
2022-10-09T00:26:43.131Z,101026.50
2022-10-09T00:29:09.875Z,101022.12
2022-10-09T00:31:36.510Z,101026.50
2022-10-09T00:34:03.167Z,101024.72
2022-10-09T00:36:29.717Z,101019.50
2022-10-09T00:38:56.294Z,101021.28
2022-10-09T00:41:25.930Z,101015.97
2022-10-09T00:43:57.279Z,101005.38
2022-10-09T00:46:42.645Z,101001.00
2022-10-09T00:49:20.966Z,100997.44
2022-10-09T00:51:47.814Z,100991.28
2022-10-09T00:54:15.441Z,100993.06
2022-10-09T00:56:42.136Z,100993.06
2022-10-09T00:59:08.729Z,101007.19
2022-10-09T01:01:35.444Z,100991.28
2022-10-09T01:04:02.132Z,100985.19
2022-10-09T01:06:43.941Z,100985.13
2022-10-09T01:09:20.192Z,100988.72
2022-10-09T01:12:02.747Z,100986.97
2022-10-09T01:14:39.720Z,100978.16
2022-10-09T01:17:20.494Z,100974.66
2022-10-09T01:20:17.230Z,100976.44
2022-10-09T01:22:47.146Z,100977.34
2022-10-09T01:25:27.139Z,100976.44
2022-10-09T01:27:53.728Z,100976.44
2022-10-09T01:30:20.379Z,100984.41
2022-10-09T01:32:48.879Z,100981.75
2022-10-09T01:35:15.636Z,100992.34
2022-10-09T01:37:43.129Z,100985.31
2022-10-09T01:40:10.413Z,100980.88
2022-10-09T01:42:37.119Z,100974.72
2022-10-09T01:45:03.852Z,100978.31
2022-10-09T01:47:30.684Z,100975.66
2022-10-09T01:50:22.834Z,100979.22
2022-10-09T01:52:55.266Z,100981.88
2022-10-09T01:55:27.909Z,100986.28
2022-10-09T01:57:59.700Z,100996.87
2022-10-09T02:00:26.484Z,100984.56
2022-10-09T02:02:53.560Z,100995.16
2022-10-09T02:05:22.631Z,100991.66
2022-10-09T02:07:49.441Z,100988.06
2022-10-09T02:10:17.008Z,100989.00
2022-10-09T02:12:47.246Z,100998.75
2022-10-09T02:15:14.007Z,100982.91
2022-10-09T02:17:43.995Z,100991.72
2022-10-09T02:20:14.633Z,100997.88
2022-10-09T02:22:41.607Z,101000.59
2022-10-09T02:25:08.237Z,100994.41
2022-10-09T02:27:34.847Z,100996.19
2022-10-09T02:30:01.518Z,101002.34
2022-10-09T02:32:28.699Z,100993.53
2022-10-09T02:34:55.248Z,101001.50
2022-10-09T02:37:22.033Z,101005.00
2022-10-09T02:39:49.077Z,101010.37
2022-10-09T02:42:15.619Z,101009.50
2022-10-09T02:44:42.498Z,101009.50
2022-10-09T02:47:09.207Z,101020.09
2022-10-09T02:49:35.778Z,101020.09
2022-10-09T02:52:02.351Z,101014.88
2022-10-09T02:54:28.907Z,101019.31
2022-10-09T02:56:55.426Z,101022.81
2022-10-09T02:59:21.988Z,101028.97
2022-10-09T03:01:50.023Z,101021.97
2022-10-09T03:04:16.775Z,101023.75
2022-10-09T03:06:43.397Z,101021.97
2022-10-09T03:09:09.967Z,101035.25
2022-10-09T03:11:36.567Z,101028.16
2022-10-09T03:14:03.101Z,101024.63
2022-10-09T03:16:29.743Z,101031.72
2022-10-09T03:18:56.492Z,101029.13
2022-10-09T03:21:24.723Z,101031.78
2022-10-09T03:23:51.843Z,101034.44
2022-10-09T03:26:20.078Z,101035.38
2022-10-09T03:28:47.958Z,101041.53
2022-10-09T03:31:27.663Z,101044.19
2022-10-09T03:34:02.147Z,101040.66
2022-10-09T03:36:28.754Z,101045.09
2022-10-09T03:38:55.319Z,101042.44
2022-10-09T03:41:21.938Z,101037.16
2022-10-09T03:43:48.480Z,101040.69
2022-10-09T03:46:15.138Z,101046.00
2022-10-09T03:48:41.696Z,101043.34
2022-10-09T03:51:08.268Z,101050.44
2022-10-09T03:53:35.103Z,101049.56
2022-10-09T03:56:01.722Z,101060.16
2022-10-09T03:58:28.323Z,101050.44
2022-10-09T04:00:55.069Z,101046.00
2022-10-09T04:03:24.286Z,101059.22
2022-10-09T04:05:50.850Z,101074.03
2022-10-09T04:08:17.417Z,101072.84
2022-10-09T04:10:43.948Z,101069.84
2022-10-09T04:13:10.740Z,101056.28
2022-10-09T04:15:37.636Z,101053.31
2022-10-09T04:18:04.400Z,101052.09
2022-10-09T04:20:34.114Z,101062.22
2022-10-09T04:23:00.816Z,101053.72
2022-10-09T04:25:27.641Z,101054.19
2022-10-09T04:27:54.303Z,101045.06
2022-10-09T04:30:20.895Z,101044.63
2022-10-09T04:32:48.390Z,101056.72
2022-10-09T04:35:16.612Z,101068.00
2022-10-09T04:37:43.163Z,101066.00
2022-10-09T04:40:09.904Z,101069.34
2022-10-09T04:42:36.533Z,101083.38
2022-10-09T04:45:03.380Z,101076.12
2022-10-09T04:47:32.961Z,101071.56
2022-10-09T04:49:59.566Z,101063.53
2022-10-09T04:52:26.185Z,101074.97
2022-10-09T04:54:52.749Z,101087.25
2022-10-09T04:57:19.300Z,101093.38
2022-10-09T04:59:46.024Z,101114.56
2022-10-09T05:02:12.580Z,101119.84
2022-10-09T05:04:39.579Z,101114.47
2022-10-09T05:07:06.154Z,101120.63
2022-10-09T05:09:32.768Z,101110.88
2022-10-09T05:11:59.335Z,101108.13
2022-10-09T05:14:25.910Z,101094.84
2022-10-09T05:17:12.638Z,101094.81
2022-10-09T05:19:39.453Z,101094.81
2022-10-09T05:22:06.025Z,101099.19
2022-10-09T05:24:32.771Z,101099.13
2022-10-09T05:26:59.435Z,101096.53
2022-10-09T05:29:26.061Z,101103.50
2022-10-09T05:31:52.768Z,101128.31
2022-10-09T05:34:21.439Z,101130.03
2022-10-09T05:36:48.147Z,101131.75
2022-10-09T05:39:16.211Z,101123.78
2022-10-09T05:41:42.768Z,101127.31
2022-10-09T05:44:12.113Z,101129.03
2022-10-09T05:46:38.722Z,101134.34
2022-10-09T05:49:05.628Z,101144.06
2022-10-09T05:51:36.730Z,101143.13
2022-10-09T05:54:03.818Z,101151.97
2022-10-09T05:56:37.758Z,101149.31
2022-10-09T05:59:05.737Z,101147.50
2022-10-09T06:01:34.064Z,101145.72
2022-10-09T06:04:00.828Z,101150.09
2022-10-09T06:06:32.040Z,101156.28
2022-10-09T06:08:58.861Z,101150.97
2022-10-09T06:11:31.598Z,101158.06
2022-10-09T06:13:58.922Z,101152.75
2022-10-09T06:16:26.887Z,101156.28
2022-10-09T06:18:53.797Z,101161.59
2022-10-09T06:21:20.397Z,101165.09
2022-10-09T06:23:51.386Z,101173.94
2022-10-09T06:26:18.311Z,101178.38
2022-10-09T06:28:45.172Z,101177.53
2022-10-09T06:31:22.249Z,101181.91
2022-10-09T06:33:49.547Z,101189.81
2022-10-09T06:36:20.767Z,101190.66
2022-10-09T06:38:47.705Z,101190.66
2022-10-09T06:41:18.760Z,101189.78
2022-10-09T06:43:56.152Z,101186.19
2022-10-09T06:46:24.535Z,101199.41
2022-10-09T06:48:51.157Z,101198.44
2022-10-09T06:51:19.017Z,101203.66
2022-10-09T06:53:52.826Z,101214.22
2022-10-09T06:56:20.109Z,101208.88
2022-10-09T06:58:46.669Z,101212.41
2022-10-09T07:01:14.030Z,101212.25
2022-10-09T07:03:43.673Z,101211.34
2022-10-09T07:06:10.183Z,101213.94
2022-10-09T07:08:37.307Z,101211.22
2022-10-09T07:11:16.584Z,101215.56
2022-10-09T07:13:44.426Z,101215.47
2022-10-09T07:16:11.512Z,101218.12
2022-10-09T07:18:41.271Z,101226.13
2022-10-09T07:21:08.589Z,101225.19
2022-10-09T07:23:35.511Z,101218.97
2022-10-09T07:26:02.845Z,101218.97
2022-10-09T07:28:30.027Z,101226.00
2022-10-09T07:30:56.860Z,101222.41
2022-10-09T07:33:23.506Z,101224.13
2022-10-09T07:35:56.735Z,101226.78
2022-10-09T07:38:24.496Z,101226.78
2022-10-09T07:40:52.216Z,101222.28
2022-10-09T07:43:18.909Z,101235.59
2022-10-09T07:45:45.455Z,101233.78
2022-10-09T07:48:12.501Z,101231.13
2022-10-09T07:50:39.049Z,101231.94
2022-10-09T07:53:05.660Z,101242.56
2022-10-09T07:55:32.212Z,101240.75
2022-10-09T07:57:58.814Z,101231.94
2022-10-09T08:00:25.459Z,101239.81
2022-10-09T08:02:52.489Z,101239.81
2022-10-09T08:05:19.468Z,101239.81
2022-10-09T08:07:46.011Z,101246.94
2022-10-09T08:10:12.824Z,101249.59
2022-10-09T08:12:39.370Z,101255.78
2022-10-09T08:15:06.711Z,101245.22
2022-10-09T08:17:33.506Z,101245.28
2022-10-09T08:20:02.610Z,101247.94
2022-10-09T08:22:29.401Z,101248.00
2022-10-09T08:24:56.016Z,101248.88
2022-10-09T08:27:22.639Z,101254.19
2022-10-09T08:29:49.223Z,101249.84
2022-10-09T08:32:15.803Z,101250.72
2022-10-09T08:34:42.531Z,101252.59
2022-10-09T08:37:09.102Z,101257.06
2022-10-09T08:39:35.708Z,101263.34
2022-10-09T08:42:03.321Z,101261.59
2022-10-09T08:44:45.478Z,101261.69
2022-10-09T08:47:29.009Z,101270.63
2022-10-09T08:50:24.357Z,101268.94
2022-10-09T08:53:01.789Z,101277.91
2022-10-09T08:55:29.543Z,101274.47
2022-10-09T08:57:57.389Z,101274.50
2022-10-09T09:00:29.293Z,101276.38
2022-10-09T09:03:20.548Z,101287.03
2022-10-09T09:06:12.344Z,101284.44
2022-10-09T09:09:14.592Z,101289.81
2022-10-09T09:11:55.000Z,101289.88
2022-10-09T09:14:47.748Z,101288.13
2022-10-09T09:17:22.188Z,101292.59
2022-10-09T09:20:14.591Z,101294.44
2022-10-09T09:22:42.683Z,101297.09
2022-10-09T09:25:20.931Z,101297.13
2022-10-09T09:27:47.733Z,101298.91
2022-10-09T09:30:24.626Z,101304.28
2022-10-09T09:33:05.916Z,101297.25
2022-10-09T09:35:47.018Z,101305.25
2022-10-09T09:38:14.416Z,101308.81
2022-10-09T09:40:45.861Z,101307.91
2022-10-09T09:43:23.514Z,101303.53
2022-10-09T09:45:54.056Z,101310.63
2022-10-09T09:48:39.293Z,101307.19
2022-10-09T09:51:32.584Z,101311.63
2022-10-09T09:54:00.906Z,101305.44
2022-10-09T09:56:53.370Z,101309.00
2022-10-09T09:59:30.155Z,101307.34
2022-10-09T10:02:01.455Z,101314.47
2022-10-09T10:04:28.443Z,101309.19
2022-10-09T10:06:55.138Z,101314.50
2022-10-09T10:09:21.766Z,101318.94
2022-10-09T10:11:57.946Z,101313.62
2022-10-09T10:14:24.755Z,101319.00
2022-10-09T10:16:52.549Z,101314.63
2022-10-09T10:19:27.128Z,101318.19
2022-10-09T10:22:03.230Z,101311.13
2022-10-09T10:24:43.729Z,101323.56
2022-10-09T10:27:22.793Z,101320.03
2022-10-09T10:29:49.807Z,101315.66
2022-10-09T10:32:22.145Z,101307.69
2022-10-09T10:34:57.811Z,101311.31
2022-10-09T10:37:38.661Z,101313.09
2022-10-09T10:40:35.119Z,101309.59
2022-10-09T10:43:11.013Z,101312.31
2022-10-09T10:45:57.027Z,101318.50
2022-10-09T10:48:32.434Z,101321.16
2022-10-09T10:51:09.131Z,101304.37
2022-10-09T10:53:46.442Z,101310.63
2022-10-09T10:56:23.697Z,101316.84
2022-10-09T10:58:58.954Z,101313.34
2022-10-09T11:01:25.660Z,101314.25
2022-10-09T11:04:10.004Z,101317.81
2022-10-09T11:07:08.915Z,101314.28
2022-10-09T11:09:35.320Z,101315.22
2022-10-09T11:12:43.232Z,101308.19
2022-10-09T11:15:19.603Z,101299.34
2022-10-09T11:18:40.830Z,101304.69
2022-10-09T11:21:28.676Z,101305.63
2022-10-09T11:24:24.110Z,101299.47
2022-10-09T11:27:03.385Z,101307.41
2022-10-09T11:29:38.448Z,101297.72
2022-10-09T11:32:17.689Z,101296.00
2022-10-09T11:34:58.121Z,101289.81
2022-10-09T11:37:27.766Z,101299.56
2022-10-09T11:39:55.026Z,101296.03
2022-10-09T11:42:23.578Z,101294.31
2022-10-09T11:44:53.431Z,101294.31
2022-10-09T11:47:38.847Z,101290.78
2022-10-09T11:50:28.746Z,101282.88
2022-10-09T11:52:59.955Z,101285.53
2022-10-09T11:55:28.732Z,101280.22
2022-10-09T11:57:55.371Z,101276.72
2022-10-09T12:00:32.569Z,101281.16
2022-10-09T12:03:03.779Z,101278.53
2022-10-09T12:05:45.085Z,101282.13
2022-10-09T12:08:19.408Z,101275.94
2022-10-09T12:10:57.896Z,101274.22
2022-10-09T12:13:31.367Z,101275.09
2022-10-09T12:15:58.715Z,101276.88
2022-10-09T12:18:28.010Z,101272.47
2022-10-09T12:20:54.711Z,101272.47
2022-10-09T12:23:27.212Z,101272.53
2022-10-09T12:25:54.379Z,101275.19
2022-10-09T12:28:31.566Z,101279.62
2022-10-09T12:30:59.827Z,101278.78
2022-10-09T12:33:34.599Z,101276.19
2022-10-09T12:36:06.895Z,101285.00
2022-10-09T12:38:33.472Z,101275.28
2022-10-09T12:41:03.271Z,101270.91
2022-10-09T12:43:30.049Z,101274.47
2022-10-09T12:45:56.654Z,101274.47
2022-10-09T12:48:25.856Z,101266.53
2022-10-09T12:50:52.945Z,101259.50
2022-10-09T12:53:24.474Z,101258.62
2022-10-09T12:56:00.671Z,101253.34
2022-10-09T12:58:32.381Z,101253.34
2022-10-09T13:01:03.974Z,101256.00
2022-10-09T13:03:43.817Z,101253.34
2022-10-09T13:06:15.351Z,101245.38
2022-10-09T13:08:41.937Z,101248.09
2022-10-09T13:11:25.427Z,101244.59
2022-10-09T13:13:52.455Z,101242.84
2022-10-09T13:16:19.759Z,101234.03
2022-10-09T13:18:59.658Z,101234.91
2022-10-09T13:21:35.064Z,101234.03
2022-10-09T13:24:13.622Z,101238.47
2022-10-09T13:26:42.327Z,101235.81
2022-10-09T13:29:08.898Z,101235.84
2022-10-09T13:31:37.035Z,101229.69
2022-10-09T13:34:11.315Z,101224.38
2022-10-09T13:36:37.857Z,101233.19
2022-10-09T13:39:04.696Z,101229.75
2022-10-09T13:41:31.267Z,101233.25
2022-10-09T13:43:57.845Z,101227.13
2022-10-09T13:46:24.560Z,101226.22
2022-10-09T13:48:51.161Z,101221.81
2022-10-09T13:51:17.798Z,101217.44
2022-10-09T13:53:44.416Z,101213.06
2022-10-09T13:56:11.067Z,101214.78
2022-10-09T13:58:37.620Z,101215.72
2022-10-09T14:01:06.595Z,101209.53
2022-10-09T14:03:33.334Z,101217.50
2022-10-09T14:06:00.975Z,101214.84
2022-10-09T14:08:27.619Z,101214.84
2022-10-09T14:10:54.459Z,101216.63
2022-10-09T14:13:21.803Z,101214.91
2022-10-09T14:15:48.363Z,101220.22
2022-10-09T14:18:14.930Z,101221.13
2022-10-09T14:20:41.518Z,101222.91
2022-10-09T14:23:13.556Z,101217.59
2022-10-09T14:25:40.540Z,101214.06
2022-10-09T14:28:07.332Z,101219.34
2022-10-09T14:30:33.959Z,101221.16
2022-10-09T14:33:00.577Z,101214.97
2022-10-09T14:35:27.123Z,101217.63
2022-10-09T14:37:53.668Z,101215.91
2022-10-09T14:40:20.253Z,101215.03
2022-10-09T14:42:47.037Z,101211.53
2022-10-09T14:45:13.687Z,101216.84
2022-10-09T14:47:40.351Z,101214.19
2022-10-09T14:50:07.309Z,101220.37
2022-10-09T14:52:35.203Z,101217.72
2022-10-09T14:55:01.764Z,101219.53
2022-10-09T14:57:31.627Z,101226.63
2022-10-09T15:00:02.091Z,101215.16
2022-10-09T15:02:28.807Z,101225.75
2022-10-09T15:04:55.417Z,101217.78
2022-10-09T15:07:22.002Z,101224.03
2022-10-09T15:09:48.554Z,101223.16
2022-10-09T15:12:15.129Z,101226.72
2022-10-09T15:14:41.707Z,101227.63
2022-10-09T15:17:08.254Z,101232.03
2022-10-09T15:19:34.846Z,101231.16
2022-10-09T15:22:01.445Z,101229.44
2022-10-09T15:24:28.142Z,101228.50
2022-10-09T15:26:54.776Z,101234.75
2022-10-09T15:29:21.374Z,101233.00
2022-10-09T15:31:49.744Z,101233.87
2022-10-09T15:34:17.962Z,101240.97
2022-10-09T15:36:45.962Z,101241.91
2022-10-09T15:39:15.660Z,101238.31
2022-10-09T15:41:43.261Z,101241.91
2022-10-09T15:44:17.819Z,101253.38
2022-10-09T15:46:44.693Z,101247.25
2022-10-09T15:49:11.393Z,101243.72
2022-10-09T15:51:38.168Z,101245.50
2022-10-09T15:54:05.426Z,101247.31
2022-10-09T15:56:36.071Z,101246.44
2022-10-09T15:59:06.182Z,101242.88
2022-10-09T16:01:32.885Z,101246.44
2022-10-09T16:03:59.498Z,101256.19
2022-10-09T16:06:26.059Z,101257.97
2022-10-09T16:08:55.537Z,101251.81
2022-10-09T16:11:25.143Z,101259.78
2022-10-09T16:13:53.713Z,101258.91
2022-10-09T16:16:22.112Z,101263.31
2022-10-09T16:18:48.705Z,101268.63
2022-10-09T16:21:17.303Z,101260.66
2022-10-09T16:23:44.070Z,101268.69
2022-10-09T16:26:10.923Z,101271.34
2022-10-09T16:28:37.743Z,101269.56
2022-10-09T16:31:04.359Z,101269.62
2022-10-09T16:33:30.970Z,101269.62
2022-10-09T16:36:10.675Z,101279.38
2022-10-09T16:38:38.052Z,101285.53
2022-10-09T16:41:07.858Z,101287.31
2022-10-09T16:43:34.456Z,101288.25
2022-10-09T16:46:10.869Z,101290.91
2022-10-09T16:48:37.649Z,101290.00
2022-10-09T16:51:11.219Z,101299.75
2022-10-09T16:53:37.892Z,101297.97
2022-10-09T16:56:12.365Z,101293.59
2022-10-09T16:58:39.926Z,101298.88
2022-10-09T17:01:10.356Z,101306.00
2022-10-09T17:03:40.294Z,101309.50
2022-10-09T17:06:25.338Z,101307.78
2022-10-09T17:08:52.779Z,101314.00
2022-10-09T17:11:19.512Z,101311.34
2022-10-09T17:13:46.318Z,101315.78
2022-10-09T17:16:18.643Z,101320.25
2022-10-09T17:18:46.183Z,101320.25
2022-10-09T17:21:12.909Z,101319.34
2022-10-09T17:23:39.472Z,101321.13
2022-10-09T17:26:10.123Z,101321.13
2022-10-09T17:28:36.837Z,101321.13
2022-10-09T17:31:08.403Z,101326.44
2022-10-09T17:33:39.227Z,101322.06
2022-10-09T17:36:05.938Z,101322.91
2022-10-09T17:38:32.478Z,101328.28
2022-10-09T17:40:59.236Z,101335.31
2022-10-09T17:43:25.786Z,101338.91
2022-10-09T17:45:52.481Z,101341.56
2022-10-09T17:48:19.061Z,101338.91
2022-10-09T17:50:55.438Z,101338.03
2022-10-09T17:53:25.076Z,101342.47
2022-10-09T17:55:53.004Z,101340.75
2022-10-09T17:58:19.868Z,101341.63
2022-10-09T18:00:46.547Z,101346.91
2022-10-09T18:03:13.431Z,101332.81
2022-10-09T18:05:44.197Z,101334.53
2022-10-09T18:08:11.232Z,101341.63
2022-10-09T18:10:37.785Z,101342.50
2022-10-09T18:13:05.195Z,101346.94
2022-10-09T18:15:31.785Z,101343.44
2022-10-09T18:17:58.326Z,101338.13
2022-10-09T18:20:25.003Z,101338.13
2022-10-09T18:22:51.583Z,101347.00
2022-10-09T18:25:18.257Z,101347.88
2022-10-09T18:27:44.837Z,101358.47
2022-10-09T18:30:11.939Z,101353.19
2022-10-09T18:32:38.520Z,101352.31
2022-10-09T18:35:05.302Z,101356.69
2022-10-09T18:37:31.852Z,101363.78
2022-10-09T18:39:58.400Z,101367.38
2022-10-09T18:42:25.044Z,101365.56
2022-10-09T18:44:51.726Z,101367.38
2022-10-09T18:47:18.659Z,101377.06
2022-10-09T18:49:47.217Z,101384.16
2022-10-09T18:52:13.871Z,101388.59
2022-10-09T18:54:40.896Z,101393.88
2022-10-09T18:57:07.577Z,101391.25
2022-10-09T18:59:35.095Z,101400.97
2022-10-09T19:02:01.734Z,101393.94
2022-10-09T19:04:28.317Z,101393.06
2022-10-09T19:06:55.102Z,101395.69
2022-10-09T19:09:21.924Z,101396.59
2022-10-09T19:11:48.509Z,101395.69
2022-10-09T19:14:15.914Z,101401.00
2022-10-09T19:16:42.615Z,101404.59
2022-10-09T19:19:09.200Z,101400.13
2022-10-09T19:21:37.858Z,101415.19
2022-10-09T19:24:06.219Z,101404.59
2022-10-09T19:26:33.142Z,101407.25
2022-10-09T19:29:00.030Z,101409.03
2022-10-09T19:31:26.618Z,101415.19
2022-10-09T19:33:53.338Z,101418.78
2022-10-09T19:36:19.915Z,101423.22
2022-10-09T19:38:46.723Z,101424.06
2022-10-09T19:41:14.693Z,101431.16
2022-10-09T19:43:41.571Z,101426.72
2022-10-09T19:46:09.982Z,101426.78
2022-10-09T19:48:36.790Z,101431.22
2022-10-09T19:51:07.366Z,101435.59
2022-10-09T19:53:34.628Z,101450.66
2022-10-09T19:56:02.844Z,101452.44
2022-10-09T19:58:31.291Z,101456.00
2022-10-09T20:00:57.880Z,101448.03
2022-10-09T20:03:24.468Z,101452.44
2022-10-09T20:05:51.054Z,101463.94
2022-10-09T20:08:17.669Z,101458.62
2022-10-09T20:10:44.231Z,101463.94
2022-10-09T20:13:10.775Z,101456.84
2022-10-09T20:15:41.516Z,101459.56
2022-10-09T20:18:08.103Z,101456.91
2022-10-09T20:20:35.528Z,101465.72
2022-10-09T20:23:02.078Z,101471.03
2022-10-09T20:25:28.765Z,101471.03
2022-10-09T20:27:55.320Z,101469.25
2022-10-09T20:30:21.882Z,101460.44
2022-10-09T20:32:49.411Z,101461.28
2022-10-09T20:35:16.287Z,101467.50
2022-10-09T20:37:42.816Z,101461.34
2022-10-09T20:40:09.699Z,101468.38
2022-10-09T20:42:36.272Z,101467.50
2022-10-09T20:45:02.870Z,101470.16
2022-10-09T20:47:29.445Z,101467.50
2022-10-09T20:49:56.003Z,101466.66
2022-10-09T20:52:22.553Z,101471.97
2022-10-09T20:54:49.193Z,101478.13
2022-10-09T20:57:15.764Z,101475.47
2022-10-09T20:59:42.436Z,101479.06
2022-10-09T21:02:10.341Z,101478.13
2022-10-09T21:04:36.926Z,101475.47
2022-10-09T21:07:03.535Z,101480.78
2022-10-09T21:09:33.266Z,101479.06
2022-10-09T21:12:00.345Z,101483.50
2022-10-09T21:14:26.898Z,101480.78
2022-10-09T21:16:53.592Z,101487.00
2022-10-09T21:19:20.123Z,101483.53
2022-10-09T21:21:50.890Z,101492.31
2022-10-09T21:24:18.052Z,101486.12
2022-10-09T21:26:47.050Z,101493.22
2022-10-09T21:29:14.047Z,101487.06
2022-10-09T21:31:40.726Z,101485.31
2022-10-09T21:34:07.471Z,101486.19
2022-10-09T21:36:50.814Z,101492.38
2022-10-09T21:39:25.660Z,101480.91
2022-10-09T21:41:52.295Z,101486.22
2022-10-09T21:44:19.109Z,101482.69
2022-10-09T21:46:45.663Z,101483.63
2022-10-09T21:49:27.221Z,101492.44
2022-10-09T21:51:53.980Z,101481.91
2022-10-09T21:54:20.792Z,101477.44
2022-10-09T21:56:47.348Z,101479.25
2022-10-09T21:59:14.011Z,101465.13
2022-10-09T22:01:40.623Z,101478.38
2022-10-09T22:04:07.223Z,101473.97
2022-10-09T22:06:33.866Z,101470.44
2022-10-09T22:09:00.438Z,101464.28
2022-10-09T22:11:27.052Z,101467.78
2022-10-09T22:13:55.221Z,101469.56
2022-10-09T22:16:21.812Z,101478.44
2022-10-09T22:18:48.381Z,101479.31
2022-10-09T22:21:15.277Z,101475.81
2022-10-09T22:23:42.018Z,101479.38
2022-10-09T22:26:11.583Z,101484.69
2022-10-09T22:28:38.171Z,101480.25
2022-10-09T22:31:11.799Z,101479.41
2022-10-09T22:33:38.348Z,101478.53
2022-10-09T22:36:15.710Z,101486.47
2022-10-09T22:38:42.618Z,101480.31
2022-10-09T22:41:13.383Z,101487.41
2022-10-09T22:43:40.057Z,101490.97
2022-10-09T22:46:10.911Z,101484.81
2022-10-09T22:48:37.847Z,101480.38
2022-10-09T22:51:05.384Z,101489.25
2022-10-09T22:53:32.201Z,101483.03
2022-10-09T22:55:58.832Z,101486.62
2022-10-09T22:58:25.493Z,101491.00
2022-10-09T23:00:52.190Z,101499.88
2022-10-09T23:03:18.825Z,101490.19
2022-10-09T23:05:45.382Z,101491.97
2022-10-09T23:08:12.204Z,101487.59
2022-10-09T23:10:39.355Z,101498.19
2022-10-09T23:13:06.152Z,101496.47
2022-10-09T23:15:36.620Z,101507.94
2022-10-09T23:18:04.390Z,101503.53
2022-10-09T23:20:31.031Z,101509.75
2022-10-09T23:22:57.661Z,101509.75
2022-10-09T23:25:24.309Z,101508.00
2022-10-09T23:27:50.979Z,101502.72
2022-10-09T23:30:17.779Z,101513.31
2022-10-09T23:32:44.343Z,101510.72
2022-10-09T23:35:11.002Z,101509.84
2022-10-09T23:37:37.575Z,101504.56
2022-10-09T23:40:04.585Z,101508.09
2022-10-09T23:42:31.128Z,101510.75
2022-10-09T23:45:00.570Z,101509.00
2022-10-09T23:47:27.105Z,101511.66
2022-10-09T23:49:53.876Z,101507.28
2022-10-09T23:52:20.460Z,101507.34
2022-10-09T23:54:47.007Z,101508.19
2022-10-09T23:57:13.595Z,101512.63
2022-10-09T23:59:40.157Z,101509.09
